Time;durP1;ratioP1;P1;durP2;ratioP2;P2;SDS_P1;SDS_P2;PMS_P1;PMS_P2;Temp;Humidity;BMP_temperature;BMP_pressure;BME280_temperature;BME280_humidity;BME280_pressure;Samples;Min_cycle;Max_cycle;Signal;HPM_P1;HPM_P2
2022/03/25 00:00:45;;;;;;;31.55;19.45;;;;;;;;;;4933799;28;20118;-84
2022/03/25 00:03:12;;;;;;;31.02;18.52;;;;;;;;;;4936320;28;20050;-84
2022/03/25 00:05:38;;;;;;;35.92;19.35;;;;;;;;;;4940003;28;20039;-84
2022/03/25 00:08:04;;;;;;;29.45;19.67;;;;;;;;;;4946113;28;20079;-84
2022/03/25 00:10:30;;;;;;;36.95;21.33;;;;;;;;;;4946576;28;20122;-84
2022/03/25 00:12:55;;;;;;;34.00;20.20;;;;;;;;;;4935791;28;20421;-84
2022/03/25 00:15:22;;;;;;;34.25;20.77;;;;;;;;;;4948794;28;20043;-85
2022/03/25 00:17:47;;;;;;;32.92;19.10;;;;;;;;;;4958504;28;20118;-84
2022/03/25 00:20:13;;;;;;;31.77;17.40;;;;;;;;;;4958747;28;20054;-84
2022/03/25 00:22:39;;;;;;;30.88;18.05;;;;;;;;;;4957385;28;20065;-84
2022/03/25 00:25:05;;;;;;;33.75;18.98;;;;;;;;;;4966318;28;20053;-84
2022/03/25 00:27:34;;;;;;;31.77;18.75;;;;;;;;;;4949516;28;20043;-84
2022/03/25 00:30:01;;;;;;;30.75;18.48;;;;;;;;;;4965966;28;20051;-84
2022/03/25 00:32:26;;;;;;;30.02;18.42;;;;;;;;;;4965026;28;20042;-84
2022/03/25 00:34:52;;;;;;;30.13;17.95;;;;;;;;;;4960163;28;20102;-84
2022/03/25 00:37:18;;;;;;;30.60;18.42;;;;;;;;;;4965765;28;20065;-84
2022/03/25 00:39:44;;;;;;;31.67;19.42;;;;;;;;;;4966601;28;20472;-84
2022/03/25 00:42:12;;;;;;;32.67;19.35;;;;;;;;;;4934225;28;20300;-84
2022/03/25 00:44:38;;;;;;;30.33;19.33;;;;;;;;;;4937924;28;20065;-84
2022/03/25 00:47:04;;;;;;;33.72;20.45;;;;;;;;;;4969611;28;20042;-85
2022/03/25 00:49:30;;;;;;;31.30;18.95;;;;;;;;;;4954590;28;20642;-84
2022/03/25 00:51:57;;;;;;;37.42;21.88;;;;;;;;;;4955886;28;20062;-84
2022/03/25 00:54:22;;;;;;;31.77;20.52;;;;;;;;;;4949358;28;20046;-84
2022/03/25 00:56:48;;;;;;;32.55;20.00;;;;;;;;;;4949525;28;20504;-84
2022/03/25 00:59:15;;;;;;;31.48;20.17;;;;;;;;;;4942375;28;20423;-84
2022/03/25 01:01:40;;;;;;;37.42;22.23;;;;;;;;;;4932452;28;20348;-84
2022/03/25 01:04:08;;;;;;;36.58;21.45;;;;;;;;;;4933794;28;20039;-84
2022/03/25 01:06:33;;;;;;;39.55;23.42;;;;;;;;;;4927002;28;20068;-84
2022/03/25 01:08:59;;;;;;;41.58;23.85;;;;;;;;;;4958943;28;20493;-84
2022/03/25 01:11:26;;;;;;;41.80;22.52;;;;;;;;;;4950516;28;20050;-84
2022/03/25 01:13:52;;;;;;;39.05;23.10;;;;;;;;;;4954609;28;20413;-84
2022/03/25 01:16:17;;;;;;;36.90;22.02;;;;;;;;;;4966476;28;20038;-84
2022/03/25 01:18:43;;;;;;;36.22;20.02;;;;;;;;;;4947948;28;20408;-84
2022/03/25 01:21:09;;;;;;;37.25;21.50;;;;;;;;;;4938158;28;20043;-83
2022/03/25 01:23:35;;;;;;;31.75;19.55;;;;;;;;;;4934309;28;20384;-84
2022/03/25 01:26:00;;;;;;;33.78;19.60;;;;;;;;;;4946422;28;20059;-84
2022/03/25 01:28:32;;;;;;;32.22;18.80;;;;;;;;;;4961130;28;20043;-84
2022/03/25 01:30:58;;;;;;;31.60;19.35;;;;;;;;;;4950696;28;20043;-83
2022/03/25 01:33:24;;;;;;;33.67;19.17;;;;;;;;;;4950747;28;20081;-83
2022/03/25 01:35:50;;;;;;;34.47;20.25;;;;;;;;;;4952666;28;20513;-83
2022/03/25 01:38:15;;;;;;;34.90;21.98;;;;;;;;;;4949477;28;20400;-83
2022/03/25 01:40:41;;;;;;;36.80;21.38;;;;;;;;;;4948767;28;20130;-83
2022/03/25 01:43:08;;;;;;;36.00;20.67;;;;;;;;;;4949408;28;20035;-83
2022/03/25 01:45:36;;;;;;;34.22;19.90;;;;;;;;;;4947996;28;20070;-84
2022/03/25 01:48:09;;;;;;;30.95;19.33;;;;;;;;;;4948123;28;20057;-84
2022/03/25 01:50:36;;;;;;;37.30;21.30;;;;;;;;;;4965411;28;20034;-83
2022/03/25 01:53:03;;;;;;;34.85;20.17;;;;;;;;;;4970487;28;20056;-83
2022/03/25 01:55:36;;;;;;;35.20;21.30;;;;;;;;;;4947637;28;20035;-84
2022/03/25 01:58:02;;;;;;;32.38;20.67;;;;;;;;;;4969830;28;20089;-84
2022/03/25 02:00:29;;;;;;;40.30;21.45;;;;;;;;;;4953116;28;20031;-83
2022/03/25 02:02:54;;;;;;;37.03;21.52;;;;;;;;;;4941342;28;20043;-84
2022/03/25 02:05:20;;;;;;;41.28;23.45;;;;;;;;;;4933855;28;20444;-83
2022/03/25 02:07:46;;;;;;;38.40;22.42;;;;;;;;;;4955085;28;20062;-84
2022/03/25 02:10:12;;;;;;;39.70;22.10;;;;;;;;;;4944698;28;20355;-83
2022/03/25 02:12:39;;;;;;;33.30;21.00;;;;;;;;;;4945492;28;20043;-83
2022/03/25 02:15:05;;;;;;;37.00;21.80;;;;;;;;;;4946383;28;20568;-83
2022/03/25 02:17:32;;;;;;;34.95;20.58;;;;;;;;;;4964632;28;20293;-84
2022/03/25 02:19:57;;;;;;;36.25;21.73;;;;;;;;;;4965721;28;20258;-84
2022/03/25 02:22:23;;;;;;;37.00;21.40;;;;;;;;;;4952669;28;20121;-83
2022/03/25 02:24:49;;;;;;;38.42;22.85;;;;;;;;;;4953279;28;20049;-83
2022/03/25 02:27:17;;;;;;;33.35;20.88;;;;;;;;;;4961962;28;20042;-83
2022/03/25 02:29:44;;;;;;;37.83;22.45;;;;;;;;;;4949178;28;20135;-83
2022/03/25 02:32:10;;;;;;;37.97;21.92;;;;;;;;;;4957151;28;20094;-83
2022/03/25 02:34:37;;;;;;;35.17;20.70;;;;;;;;;;4950712;28;20065;-83
2022/03/25 02:37:04;;;;;;;39.80;21.13;;;;;;;;;;4937961;28;20346;-83
2022/03/25 02:39:30;;;;;;;38.55;22.95;;;;;;;;;;4964351;28;20038;-83
2022/03/25 02:41:55;;;;;;;37.47;21.27;;;;;;;;;;4966013;28;20063;-83
2022/03/25 02:44:21;;;;;;;38.97;23.58;;;;;;;;;;4946969;28;20043;-83
2022/03/25 02:46:47;;;;;;;41.63;23.27;;;;;;;;;;4949695;28;20183;-83
2022/03/25 02:49:13;;;;;;;35.70;21.45;;;;;;;;;;4951314;28;20039;-83
2022/03/25 02:51:39;;;;;;;38.30;22.60;;;;;;;;;;4968077;28;20045;-84
2022/03/25 02:54:05;;;;;;;37.90;20.80;;;;;;;;;;4968352;28;20496;-83
2022/03/25 02:56:31;;;;;;;36.17;21.15;;;;;;;;;;4950942;28;20035;-83
2022/03/25 02:58:57;;;;;;;36.30;21.38;;;;;;;;;;4950261;28;20105;-83
2022/03/25 03:01:23;;;;;;;36.03;20.60;;;;;;;;;;4948089;28;20043;-83
2022/03/25 03:03:49;;;;;;;36.60;21.17;;;;;;;;;;4966841;28;20053;-83
2022/03/25 03:06:14;;;;;;;34.85;20.40;;;;;;;;;;4955134;28;20043;-83
2022/03/25 03:08:41;;;;;;;34.90;21.33;;;;;;;;;;4952568;28;20035;-83
2022/03/25 03:11:08;;;;;;;39.83;20.67;;;;;;;;;;4949898;28;20094;-83
2022/03/25 03:13:33;;;;;;;36.17;20.83;;;;;;;;;;4951617;28;20035;-83
2022/03/25 03:15:59;;;;;;;34.33;19.75;;;;;;;;;;4949698;28;20088;-83
2022/03/25 03:18:25;;;;;;;34.92;19.85;;;;;;;;;;4967525;28;20129;-83
2022/03/25 03:20:51;;;;;;;34.50;19.15;;;;;;;;;;4949861;28;20062;-83
2022/03/25 03:23:16;;;;;;;36.80;19.10;;;;;;;;;;4966314;28;20101;-84
2022/03/25 03:25:42;;;;;;;34.97;20.90;;;;;;;;;;4966719;28;20073;-83
2022/03/25 03:28:08;;;;;;;39.85;21.00;;;;;;;;;;4952681;28;20055;-83
2022/03/25 03:30:34;;;;;;;34.00;19.42;;;;;;;;;;4950779;28;20043;-83
2022/03/25 03:33:04;;;;;;;37.42;20.38;;;;;;;;;;4966691;28;20137;-83
2022/03/25 03:35:31;;;;;;;35.00;19.48;;;;;;;;;;4951122;28;20545;-82
2022/03/25 03:37:57;;;;;;;32.35;18.40;;;;;;;;;;4960572;28;20051;-82
2022/03/25 03:40:23;;;;;;;35.97;19.23;;;;;;;;;;4956162;28;20042;-84
2022/03/25 03:42:49;;;;;;;34.38;18.98;;;;;;;;;;4946701;28;20075;-82
2022/03/25 03:45:14;;;;;;;34.38;18.77;;;;;;;;;;4957438;28;20055;-82
2022/03/25 03:47:41;;;;;;;36.13;17.85;;;;;;;;;;4947591;28;20071;-82
2022/03/25 03:50:11;;;;;;;33.10;19.45;;;;;;;;;;4949314;28;20035;-82
2022/03/25 03:52:37;;;;;;;34.60;18.77;;;;;;;;;;4945941;28;20151;-82
2022/03/25 03:55:05;;;;;;;32.72;19.45;;;;;;;;;;4946598;28;20046;-82
2022/03/25 03:57:31;;;;;;;35.33;18.90;;;;;;;;;;4937999;28;20090;-82
2022/03/25 03:59:57;;;;;;;34.58;19.77;;;;;;;;;;4958850;28;20043;-82
2022/03/25 04:02:22;;;;;;;31.55;18.70;;;;;;;;;;4943591;28;20032;-82
2022/03/25 04:04:48;;;;;;;36.75;20.05;;;;;;;;;;4948163;28;20085;-82
2022/03/25 04:07:19;;;;;;;37.17;20.50;;;;;;;;;;4938011;28;20039;-82
2022/03/25 04:09:45;;;;;;;35.42;20.30;;;;;;;;;;4951930;28;20156;-82
2022/03/25 04:12:13;;;;;;;37.95;20.05;;;;;;;;;;4965968;28;20035;-82
2022/03/25 04:14:39;;;;;;;36.08;20.60;;;;;;;;;;4937302;28;20051;-82
2022/03/25 04:17:05;;;;;;;35.80;20.63;;;;;;;;;;4959265;28;20082;-82
2022/03/25 04:19:30;;;;;;;39.03;19.85;;;;;;;;;;4952457;28;20488;-82
2022/03/25 04:21:56;;;;;;;36.03;20.55;;;;;;;;;;4948764;28;20070;-82
2022/03/25 04:24:22;;;;;;;36.33;19.90;;;;;;;;;;4944061;28;20133;-83
2022/03/25 04:26:47;;;;;;;35.17;20.98;;;;;;;;;;4951000;28;20071;-82
2022/03/25 04:29:13;;;;;;;38.47;21.05;;;;;;;;;;4957942;28;20074;-82
2022/03/25 04:31:39;;;;;;;36.80;20.27;;;;;;;;;;4949599;28;20038;-82
2022/03/25 04:34:04;;;;;;;36.35;21.52;;;;;;;;;;4945137;28;20059;-82
2022/03/25 04:36:30;;;;;;;34.97;19.92;;;;;;;;;;4948582;28;20389;-82
2022/03/25 04:38:56;;;;;;;35.53;20.15;;;;;;;;;;4962308;28;20090;-82
2022/03/25 04:41:23;;;;;;;36.42;19.95;;;;;;;;;;4946814;28;20047;-82
2022/03/25 04:43:51;;;;;;;32.88;19.67;;;;;;;;;;4959985;28;20125;-82
2022/03/25 04:46:17;;;;;;;34.33;19.73;;;;;;;;;;4956742;28;20529;-82
2022/03/25 04:48:42;;;;;;;35.13;19.40;;;;;;;;;;4965468;28;20455;-82
2022/03/25 04:51:08;;;;;;;38.45;19.75;;;;;;;;;;4944744;28;20039;-82
2022/03/25 04:53:34;;;;;;;35.75;20.33;;;;;;;;;;4957214;28;20507;-82
2022/03/25 04:56:01;;;;;;;37.75;21.00;;;;;;;;;;4948408;28;20268;-82
2022/03/25 04:58:27;;;;;;;39.88;19.33;;;;;;;;;;4965012;28;20059;-82
2022/03/25 05:00:53;;;;;;;36.78;20.05;;;;;;;;;;4945541;28;20065;-82
2022/03/25 05:03:19;;;;;;;36.05;20.77;;;;;;;;;;4948733;28;20039;-82
2022/03/25 05:05:46;;;;;;;33.35;19.05;;;;;;;;;;4955806;28;20411;-82
2022/03/25 05:08:12;;;;;;;34.35;19.48;;;;;;;;;;4949642;28;20796;-82
2022/03/25 05:10:38;;;;;;;35.42;20.52;;;;;;;;;;4964858;28;20118;-82
2022/03/25 05:13:04;;;;;;;34.25;19.58;;;;;;;;;;4946391;28;20054;-82
2022/03/25 05:15:30;;;;;;;33.97;19.67;;;;;;;;;;4933074;28;20069;-82
2022/03/25 05:17:56;;;;;;;35.17;20.08;;;;;;;;;;4956765;28;20043;-82
2022/03/25 05:20:22;;;;;;;35.20;20.60;;;;;;;;;;4964911;28;20038;-82
2022/03/25 05:22:49;;;;;;;36.25;21.20;;;;;;;;;;4946685;28;20150;-82
2022/03/25 05:25:15;;;;;;;36.47;20.08;;;;;;;;;;4960041;28;20099;-82
2022/03/25 05:27:48;;;;;;;34.95;21.35;;;;;;;;;;4965986;28;20035;-82
2022/03/25 05:30:15;;;;;;;37.90;20.38;;;;;;;;;;4966758;28;20089;-82
2022/03/25 05:32:42;;;;;;;38.97;20.77;;;;;;;;;;4953009;28;20127;-82
2022/03/25 05:35:09;;;;;;;36.35;21.13;;;;;;;;;;4969206;28;20053;-82
2022/03/25 05:37:36;;;;;;;34.20;20.70;;;;;;;;;;4968708;28;20050;-82
2022/03/25 05:40:01;;;;;;;38.05;21.63;;;;;;;;;;4952701;28;20046;-82
2022/03/25 05:42:27;;;;;;;34.28;19.77;;;;;;;;;;4951787;28;20054;-82
2022/03/25 05:44:54;;;;;;;40.90;20.88;;;;;;;;;;4941437;28;20047;-82
2022/03/25 05:47:19;;;;;;;36.90;21.25;;;;;;;;;;4950711;28;20035;-82
2022/03/25 05:49:45;;;;;;;34.72;21.35;;;;;;;;;;4966665;28;20035;-82
2022/03/25 05:52:11;;;;;;;35.88;20.58;;;;;;;;;;4952834;28;20042;-82
2022/03/25 05:54:37;;;;;;;40.38;23.33;;;;;;;;;;4952103;28;20039;-82
2022/03/25 05:57:03;;;;;;;37.83;22.58;;;;;;;;;;4961392;28;20086;-82
2022/03/25 05:59:29;;;;;;;34.78;20.75;;;;;;;;;;4959055;28;20133;-82
2022/03/25 06:01:54;;;;;;;37.25;20.67;;;;;;;;;;4947058;28;20100;-82
2022/03/25 06:04:20;;;;;;;37.65;22.08;;;;;;;;;;4948752;28;20039;-82
2022/03/25 06:06:46;;;;;;;38.72;22.30;;;;;;;;;;4966140;28;20121;-82
2022/03/25 06:09:12;;;;;;;49.47;27.50;;;;;;;;;;4977769;28;20051;-82
2022/03/25 06:11:37;;;;;;;46.97;30.27;;;;;;;;;;4968654;28;20039;-82
2022/03/25 06:14:03;;;;;;;50.00;32.88;;;;;;;;;;4969011;28;20050;-82
2022/03/25 06:16:29;;;;;;;42.92;27.35;;;;;;;;;;4955106;28;20094;-82
2022/03/25 06:18:55;;;;;;;43.25;24.23;;;;;;;;;;4953006;28;20632;-83
2022/03/25 06:21:21;;;;;;;37.58;23.73;;;;;;;;;;4948067;28;20139;-82
2022/03/25 06:23:47;;;;;;;36.95;21.63;;;;;;;;;;4947490;28;20042;-82
2022/03/25 06:26:13;;;;;;;39.42;22.92;;;;;;;;;;4960144;28;20043;-82
2022/03/25 06:28:38;;;;;;;39.08;23.42;;;;;;;;;;4967716;28;20431;-82
2022/03/25 06:31:04;;;;;;;35.28;21.98;;;;;;;;;;4975936;28;20229;-82
2022/03/25 06:33:30;;;;;;;34.53;21.25;;;;;;;;;;4963865;28;20499;-83
2022/03/25 06:35:56;;;;;;;38.90;22.25;;;;;;;;;;4948931;28;20055;-82
2022/03/25 06:38:22;;;;;;;36.33;21.83;;;;;;;;;;4954484;28;20046;-85
2022/03/25 06:40:48;;;;;;;37.05;21.10;;;;;;;;;;4951555;28;20588;-84
2022/03/25 06:43:14;;;;;;;36.42;22.45;;;;;;;;;;4956861;28;20121;-84
2022/03/25 06:45:40;;;;;;;40.80;23.55;;;;;;;;;;4956978;28;20045;-84
2022/03/25 06:48:06;;;;;;;37.90;23.23;;;;;;;;;;4950241;28;20452;-84
2022/03/25 06:50:32;;;;;;;41.85;23.15;;;;;;;;;;4966850;28;20097;-84
2022/03/25 06:53:01;;;;;;;39.08;24.25;;;;;;;;;;4951499;28;20504;-84
2022/03/25 06:55:26;;;;;;;41.40;23.58;;;;;;;;;;4951730;28;20050;-84
2022/03/25 06:57:52;;;;;;;38.65;22.98;;;;;;;;;;4947115;28;20107;-83
2022/03/25 07:00:20;;;;;;;45.08;25.15;;;;;;;;;;4947180;28;20142;-84
2022/03/25 07:02:47;;;;;;;42.13;26.45;;;;;;;;;;4952073;28;20054;-84
2022/03/25 07:05:13;;;;;;;41.92;25.15;;;;;;;;;;4956189;28;20057;-85
2022/03/25 07:07:41;;;;;;;39.72;26.70;;;;;;;;;;4934739;28;20436;-84
2022/03/25 07:10:09;;;;;;;40.97;25.27;;;;;;;;;;4934446;28;20054;-85
2022/03/25 07:12:37;;;;;;;42.45;25.25;;;;;;;;;;4947349;28;20043;-85
2022/03/25 07:15:04;;;;;;;37.95;24.30;;;;;;;;;;4930914;28;20409;-86
2022/03/25 07:17:30;;;;;;;40.28;25.77;;;;;;;;;;4959855;28;20042;-85
2022/03/25 07:19:56;;;;;;;40.40;25.92;;;;;;;;;;4948124;28;20043;-87
2022/03/25 07:22:21;;;;;;;40.58;25.80;;;;;;;;;;4957078;28;20047;-86
2022/03/25 07:24:52;;;;;;;40.95;25.88;;;;;;;;;;4978827;28;20083;-86
2022/03/25 07:27:18;;;;;;;44.55;25.70;;;;;;;;;;4953504;28;20049;-86
2022/03/25 07:29:44;;;;;;;44.38;26.15;;;;;;;;;;4956579;28;20046;-87
2022/03/25 07:32:10;;;;;;;43.22;25.73;;;;;;;;;;4962382;28;20051;-86
2022/03/25 07:34:37;;;;;;;38.15;24.85;;;;;;;;;;4952718;28;20059;-86
2022/03/25 07:37:03;;;;;;;39.00;23.90;;;;;;;;;;4943604;28;20090;-86
2022/03/25 07:39:30;;;;;;;37.95;23.73;;;;;;;;;;4945390;28;20039;-86
2022/03/25 07:41:56;;;;;;;39.20;24.70;;;;;;;;;;4960003;28;20496;-86
2022/03/25 07:44:22;;;;;;;46.33;24.55;;;;;;;;;;4953167;28;20066;-86
2022/03/25 07:46:48;;;;;;;43.20;25.60;;;;;;;;;;4961786;28;20055;-86
2022/03/25 07:49:13;;;;;;;45.15;25.52;;;;;;;;;;4962634;28;20038;-86
2022/03/25 07:51:39;;;;;;;43.55;26.60;;;;;;;;;;4938562;28;20588;-86
2022/03/25 07:54:06;;;;;;;43.83;24.77;;;;;;;;;;4963796;28;20293;-86
2022/03/25 07:56:32;;;;;;;43.78;25.58;;;;;;;;;;4964972;28;20130;-86
2022/03/25 07:58:59;;;;;;;45.80;23.55;;;;;;;;;;4956543;28;20295;-86
2022/03/25 08:01:25;;;;;;;46.22;24.80;;;;;;;;;;4958922;28;20343;-87
2022/03/25 08:03:51;;;;;;;41.63;23.52;;;;;;;;;;4949836;28;20082;-87
2022/03/25 08:06:17;;;;;;;46.83;24.40;;;;;;;;;;4948226;28;20047;-90
2022/03/25 08:08:42;;;;;;;43.53;24.35;;;;;;;;;;4928489;29;20043;-88
2022/03/25 08:11:11;;;;;;;44.00;24.63;;;;;;;;;;4929426;28;20061;-88
2022/03/25 08:13:37;;;;;;;44.88;26.48;;;;;;;;;;4942738;28;20049;-89
2022/03/25 08:16:03;;;;;;;43.78;23.98;;;;;;;;;;4940671;28;20585;-88
2022/03/25 08:18:29;;;;;;;41.72;23.73;;;;;;;;;;4936969;28;20130;-88
2022/03/25 08:20:57;;;;;;;42.00;25.92;;;;;;;;;;4962146;28;20051;-90
2022/03/25 08:28:55;;;;;;;55.08;32.05;;;;;;;;;;4961218;28;20578;-88
2022/03/25 08:31:21;;;;;;;53.65;30.15;;;;;;;;;;4962199;28;20049;-88
2022/03/25 08:33:47;;;;;;;49.42;29.02;;;;;;;;;;4954993;28;20177;-87
2022/03/25 08:36:13;;;;;;;46.47;28.73;;;;;;;;;;4947038;28;20074;-89
2022/03/25 08:38:38;;;;;;;52.58;28.05;;;;;;;;;;4952822;28;20511;-88
2022/03/25 08:41:04;;;;;;;52.10;28.63;;;;;;;;;;4946061;28;21720;-88
2022/03/25 08:43:30;;;;;;;47.70;27.25;;;;;;;;;;4944987;28;20584;-88
2022/03/25 08:45:57;;;;;;;52.33;27.95;;;;;;;;;;4947638;28;20570;-89
2022/03/25 08:48:23;;;;;;;48.70;27.77;;;;;;;;;;4962458;28;20046;-87
2022/03/25 08:50:49;;;;;;;47.85;28.20;;;;;;;;;;4946931;28;20519;-88
2022/03/25 08:53:16;;;;;;;52.40;29.25;;;;;;;;;;4962271;28;20138;-88
2022/03/25 08:55:41;;;;;;;51.80;31.75;;;;;;;;;;4953054;28;20054;-89
2022/03/25 08:58:07;;;;;;;53.53;29.95;;;;;;;;;;4955084;28;20299;-89
2022/03/25 09:00:33;;;;;;;51.95;31.67;;;;;;;;;;4963361;28;20042;-90
2022/03/25 09:02:58;;;;;;;51.85;30.13;;;;;;;;;;4952364;28;20445;-90
2022/03/25 09:05:24;;;;;;;46.60;29.67;;;;;;;;;;4962892;28;20071;-90
2022/03/25 09:07:50;;;;;;;60.72;33.25;;;;;;;;;;4961598;28;20039;-88
2022/03/25 09:10:16;;;;;;;58.03;32.67;;;;;;;;;;4946205;28;20035;-86
2022/03/25 09:12:42;;;;;;;59.13;34.35;;;;;;;;;;4946761;28;20128;-86
2022/03/25 09:15:09;;;;;;;55.92;31.23;;;;;;;;;;4949523;28;20034;-86
2022/03/25 09:17:35;;;;;;;57.55;35.17;;;;;;;;;;4943303;28;20053;-87
2022/03/25 09:20:03;;;;;;;55.38;34.60;;;;;;;;;;4954719;28;20097;-87
2022/03/25 09:22:30;;;;;;;60.58;33.40;;;;;;;;;;4944401;28;20081;-88
2022/03/25 09:24:56;;;;;;;57.42;34.75;;;;;;;;;;4960534;28;20121;-89
2022/03/25 09:27:22;;;;;;;58.47;33.67;;;;;;;;;;4951952;28;20126;-87
2022/03/25 09:29:48;;;;;;;56.85;33.97;;;;;;;;;;4947659;28;20089;-86
2022/03/25 09:32:13;;;;;;;58.70;34.35;;;;;;;;;;4944554;28;20070;-88
2022/03/25 09:35:24;;;;;;;60.95;33.78;;;;;;;;;;4934694;28;20067;-88
2022/03/25 09:37:25;;;;;;;60.47;35.25;;;;;;;;;;4944134;28;20408;-87
2022/03/25 09:39:51;;;;;;;56.20;34.28;;;;;;;;;;4946194;28;20122;-86
2022/03/25 09:42:17;;;;;;;59.17;35.45;;;;;;;;;;4942207;28;20074;-86
2022/03/25 09:44:43;;;;;;;60.05;35.28;;;;;;;;;;4946047;28;20356;-87
2022/03/25 09:47:10;;;;;;;57.42;35.22;;;;;;;;;;4933688;28;20046;-88
2022/03/25 09:49:38;;;;;;;59.22;36.45;;;;;;;;;;4933910;28;20041;-87
2022/03/25 09:52:05;;;;;;;57.95;33.97;;;;;;;;;;4953953;28;20051;-87
2022/03/25 09:54:31;;;;;;;52.70;34.85;;;;;;;;;;4927483;28;20497;-86
2022/03/25 09:56:57;;;;;;;53.92;33.95;;;;;;;;;;4934843;28;20051;-86
2022/03/25 09:59:23;;;;;;;55.42;34.95;;;;;;;;;;4942542;28;20501;-88
2022/03/25 10:01:49;;;;;;;56.50;33.38;;;;;;;;;;4942054;28;20141;-88
2022/03/25 10:04:40;;;;;;;52.83;32.25;;;;;;;;;;4941937;28;20453;-88
2022/03/25 10:07:30;;;;;;;50.65;31.65;;;;;;;;;;4956809;28;20046;-87
2022/03/25 10:10:18;;;;;;;59.97;35.47;;;;;;;;;;4978246;28;20035;-88
2022/03/25 10:12:47;;;;;;;52.25;33.17;;;;;;;;;;4934710;28;20046;-87
2022/03/25 10:15:21;;;;;;;48.88;32.13;;;;;;;;;;4961594;28;20594;-86
2022/03/25 10:17:59;;;;;;;45.72;31.85;;;;;;;;;;4979639;28;20066;-85
2022/03/25 10:20:30;;;;;;;53.88;33.15;;;;;;;;;;4965479;28;20246;-84
2022/03/25 10:23:02;;;;;;;51.10;31.92;;;;;;;;;;4957687;28;20625;-86
2022/03/25 10:25:35;;;;;;;53.80;33.97;;;;;;;;;;4942893;28;20126;-85
2022/03/25 10:28:02;;;;;;;56.08;33.47;;;;;;;;;;4948283;28;20062;-87
2022/03/25 10:30:37;;;;;;;49.92;32.42;;;;;;;;;;4951107;28;20035;-87
2022/03/25 10:33:19;;;;;;;55.95;35.17;;;;;;;;;;4948100;28;20591;-87
2022/03/25 10:36:07;;;;;;;52.28;36.63;;;;;;;;;;4962781;28;20035;-86
2022/03/25 10:38:44;;;;;;;47.85;34.53;;;;;;;;;;4958569;28;20122;-86
2022/03/25 10:41:11;;;;;;;49.50;34.35;;;;;;;;;;4961558;28;20508;-87
2022/03/25 10:43:48;;;;;;;47.67;34.58;;;;;;;;;;4971939;28;20069;-86
2022/03/25 10:46:38;;;;;;;45.25;34.22;;;;;;;;;;4960148;28;20146;-86
2022/03/25 10:49:06;;;;;;;42.15;33.63;;;;;;;;;;4964760;28;20042;-86
2022/03/25 10:51:35;;;;;;;44.45;33.58;;;;;;;;;;4963841;28;20039;-87
2022/03/25 10:54:11;;;;;;;41.72;34.05;;;;;;;;;;4968096;28;20035;-85
2022/03/25 10:56:49;;;;;;;44.67;34.65;;;;;;;;;;4956001;28;20035;-86
2022/03/25 10:59:25;;;;;;;58.85;42.22;;;;;;;;;;4963423;28;20410;-86
2022/03/25 11:01:53;;;;;;;44.35;34.40;;;;;;;;;;4964648;28;20058;-85
2022/03/25 11:04:19;;;;;;;46.45;33.90;;;;;;;;;;4958221;28;20050;-86
2022/03/25 11:06:49;;;;;;;47.38;33.05;;;;;;;;;;4949662;28;20046;-85
2022/03/25 11:09:16;;;;;;;45.70;33.10;;;;;;;;;;4947539;28;20042;-89
2022/03/25 11:11:43;;;;;;;43.25;31.27;;;;;;;;;;4966105;28;20058;-85
2022/03/25 11:14:09;;;;;;;40.53;30.05;;;;;;;;;;4966604;28;20396;-86
2022/03/25 11:16:37;;;;;;;44.97;31.73;;;;;;;;;;4948369;28;20129;-86
2022/03/25 11:19:02;;;;;;;38.17;30.88;;;;;;;;;;4947038;28;20057;-86
2022/03/25 11:21:28;;;;;;;40.55;31.45;;;;;;;;;;4940475;28;20394;-85
2022/03/25 11:23:56;;;;;;;42.17;30.85;;;;;;;;;;4938268;28;20117;-87
2022/03/25 11:26:24;;;;;;;42.20;31.02;;;;;;;;;;4944443;28;20049;-87
2022/03/25 11:28:56;;;;;;;40.38;31.33;;;;;;;;;;4947066;28;20057;-86
2022/03/25 11:31:24;;;;;;;37.55;28.20;;;;;;;;;;4951765;28;20256;-87
2022/03/25 11:34:09;;;;;;;37.85;29.20;;;;;;;;;;4936245;28;20423;-87
2022/03/25 11:36:36;;;;;;;38.22;30.65;;;;;;;;;;4956024;28;20212;-87
2022/03/25 11:39:25;;;;;;;40.60;29.48;;;;;;;;;;4946580;28;20596;-87
2022/03/25 11:41:53;;;;;;;40.28;29.52;;;;;;;;;;4945285;28;20074;-87
2022/03/25 11:44:23;;;;;;;41.75;31.50;;;;;;;;;;4964186;28;20038;-85
2022/03/25 11:47:00;;;;;;;37.55;30.05;;;;;;;;;;4954215;28;20047;-85
2022/03/25 11:49:28;;;;;;;41.65;30.52;;;;;;;;;;4962709;28;20125;-85
2022/03/25 11:51:54;;;;;;;41.80;30.00;;;;;;;;;;4963184;28;20506;-85
2022/03/25 11:54:40;;;;;;;38.05;28.40;;;;;;;;;;4939829;28;20035;-84
2022/03/25 11:57:17;;;;;;;40.92;27.83;;;;;;;;;;4967279;28;20140;-85
2022/03/25 11:59:56;;;;;;;42.00;28.10;;;;;;;;;;4947038;28;20043;-88
2022/03/25 12:02:33;;;;;;;36.97;26.98;;;;;;;;;;4962637;28;20042;-86
2022/03/25 12:05:00;;;;;;;31.63;26.05;;;;;;;;;;4961716;28;20047;-85
2022/03/25 12:07:26;;;;;;;34.60;26.90;;;;;;;;;;4955925;28;20039;-85
2022/03/25 12:09:52;;;;;;;35.97;28.25;;;;;;;;;;4962713;28;20037;-84
2022/03/25 12:12:17;;;;;;;38.38;27.52;;;;;;;;;;4945312;28;20110;-85
2022/03/25 12:15:06;;;;;;;40.47;27.27;;;;;;;;;;4962683;28;20425;-85
2022/03/25 12:17:32;;;;;;;41.00;27.80;;;;;;;;;;4946621;28;20067;-84
2022/03/25 12:20:00;;;;;;;39.90;25.88;;;;;;;;;;4941790;28;20449;-84
2022/03/25 12:22:32;;;;;;;32.00;25.67;;;;;;;;;;4965860;28;20031;-84
2022/03/25 12:25:06;;;;;;;37.97;28.17;;;;;;;;;;4962692;28;20117;-87
2022/03/25 12:27:31;;;;;;;39.03;26.95;;;;;;;;;;4961535;28;20097;-87
2022/03/25 12:29:57;;;;;;;36.42;26.60;;;;;;;;;;4958853;28;20051;-86
2022/03/25 12:32:35;;;;;;;41.15;26.08;;;;;;;;;;4954734;28;20578;-86
2022/03/25 12:35:16;;;;;;;36.75;25.17;;;;;;;;;;4940985;28;20596;-86
2022/03/25 12:37:56;;;;;;;36.55;24.23;;;;;;;;;;4944634;28;20429;-86
2022/03/25 12:40:29;;;;;;;43.22;28.83;;;;;;;;;;4991151;28;20190;-87
2022/03/25 12:42:59;;;;;;;40.33;26.20;;;;;;;;;;4944975;28;20043;-86
2022/03/25 12:45:36;;;;;;;39.15;24.55;;;;;;;;;;4962047;28;20050;-86
2022/03/25 12:48:24;;;;;;;33.20;24.23;;;;;;;;;;4961819;28;20045;-87
2022/03/25 12:51:02;;;;;;;34.15;23.92;;;;;;;;;;4992586;28;20074;-86
2022/03/25 12:53:29;;;;;;;36.03;24.55;;;;;;;;;;4961148;28;20051;-86
2022/03/25 12:55:56;;;;;;;39.90;26.08;;;;;;;;;;4945689;28;20423;-86
2022/03/25 12:58:23;;;;;;;33.20;26.23;;;;;;;;;;4945111;28;20125;-87
2022/03/25 13:00:50;;;;;;;34.95;27.40;;;;;;;;;;4960107;28;20129;-86
2022/03/25 13:03:18;;;;;;;39.15;26.30;;;;;;;;;;4962561;28;20130;-86
2022/03/25 13:05:44;;;;;;;36.33;26.80;;;;;;;;;;4944186;28;20039;-86
2022/03/25 13:08:10;;;;;;;35.53;27.02;;;;;;;;;;4962720;28;20046;-86
2022/03/25 13:10:37;;;;;;;38.13;25.98;;;;;;;;;;4961489;28;20062;-86
2022/03/25 13:13:06;;;;;;;38.75;25.77;;;;;;;;;;4941586;28;20050;-85
2022/03/25 13:15:35;;;;;;;35.42;24.75;;;;;;;;;;4964240;28;20039;-87
2022/03/25 13:18:06;;;;;;;32.78;23.50;;;;;;;;;;4943756;28;20094;-86
2022/03/25 13:20:35;;;;;;;36.72;23.40;;;;;;;;;;4948322;28;20043;-86
2022/03/25 13:23:09;;;;;;;32.30;24.67;;;;;;;;;;4964189;28;20497;-86
2022/03/25 13:25:37;;;;;;;35.20;24.48;;;;;;;;;;4964887;28;20123;-86
2022/03/25 13:28:05;;;;;;;34.75;24.95;;;;;;;;;;4945638;28;20038;-88
2022/03/25 13:30:31;;;;;;;32.28;23.70;;;;;;;;;;4928509;28;20051;-88
2022/03/25 13:32:59;;;;;;;33.85;23.05;;;;;;;;;;4928871;28;20054;-88
2022/03/25 13:35:48;;;;;;;29.50;21.88;;;;;;;;;;4936154;28;20122;-87
2022/03/25 13:38:16;;;;;;;29.88;21.00;;;;;;;;;;4969908;28;20054;-88
2022/03/25 13:40:48;;;;;;;32.45;23.17;;;;;;;;;;4961361;28;20031;-87
2022/03/25 13:43:16;;;;;;;29.92;22.33;;;;;;;;;;4959286;28;20039;-87
2022/03/25 13:45:56;;;;;;;30.50;23.20;;;;;;;;;;4961798;28;20046;-88
2022/03/25 13:48:22;;;;;;;29.98;21.98;;;;;;;;;;4961664;28;20049;-87
2022/03/25 13:50:49;;;;;;;31.70;23.10;;;;;;;;;;4951807;28;20047;-87
2022/03/25 13:53:19;;;;;;;30.67;21.27;;;;;;;;;;4965426;28;20042;-86
2022/03/25 13:55:46;;;;;;;30.42;22.23;;;;;;;;;;4968530;28;20046;-86
2022/03/25 13:58:17;;;;;;;28.45;21.20;;;;;;;;;;4951258;28;20041;-85
2022/03/25 14:00:50;;;;;;;25.38;20.75;;;;;;;;;;4942593;28;20098;-83
2022/03/25 14:03:17;;;;;;;26.23;19.42;;;;;;;;;;4950502;28;20046;-86
2022/03/25 14:05:43;;;;;;;23.73;18.02;;;;;;;;;;4951439;28;20042;-85
2022/03/25 14:08:10;;;;;;;26.45;18.42;;;;;;;;;;4975412;28;20496;-85
2022/03/25 14:10:48;;;;;;;23.13;17.35;;;;;;;;;;4971270;28;20081;-85
2022/03/25 14:13:13;;;;;;;24.88;17.15;;;;;;;;;;4948278;28;20066;-85
2022/03/25 14:15:39;;;;;;;24.55;16.70;;;;;;;;;;4967244;28;20102;-85
2022/03/25 14:18:17;;;;;;;26.15;17.52;;;;;;;;;;4933076;28;20115;-86
2022/03/25 14:20:43;;;;;;;25.98;17.65;;;;;;;;;;4952539;28;20063;-85
2022/03/25 14:23:11;;;;;;;26.50;17.45;;;;;;;;;;4966401;28;20098;-85
2022/03/25 14:25:37;;;;;;;27.67;18.40;;;;;;;;;;4947017;28;20034;-86